Santa Barbara Municipal Airport
KSBA : rendu visible

Aérodrome :











RETROUVEZ-NOUS SUR...

 
LOGIN :

S'inscrire | Disclaimer

   EN    FR    IT 

 









Légende :    VFR   VFR Marginal   IFR   IFR Intensif   IFR Très Intensif
Visi : 
Plafond : 
>= 8 km
>= 3000ft
5 à 8 km
1000 à 3000 ft
1500m à 5 km
500 à 1000 ft
800 à 1500m
200 à 500 ft
< 800m
< 200 ft
Symboles :   Orages  Brouillard  Fortes neiges  Fortes précipitations  Vent > 20 kt






- Altitude de l'aérodrome : 13 ft
- Code IATA : SBA


KSBA - Santa Barbara Municipal

DERNIER METAR :
  • 081253Z AUTO 06004KT 10SM CLR 08/07 A2997 RMK AO2 RAB11E22 SLP148 P0000 T00830072

METARs EXPIRÉS :
  • 081153Z AUTO 05005KT 10SM OVC060 10/08 A2997 RMK AO2 SLP149 60000 70030 T01000083 10106 20094 55011
  • 081053Z AUTO 06005KT 10SM OVC039 10/08 A2997 RMK AO2 SLP149 T01000083
  • 080953Z AUTO 02004KT 10SM OVC038 10/08 A2998 RMK AO2 SLP153 T01000083

TAF KSBA
Valide du 08 à 12h jusqu'au 09 à 12h UTC


081138Z 0812/0912 VRB03KT P6SM OVC040
FM081400 12005KT P6SM -SHRA OVC025
FM081800 19006KT P6SM -SHRA OVC025
FM082100 24008KT P6SM -SHRA OVC050
FM090300 VRB03KT P6SM VCSH OVC050
FM090900 VRB05KT P6SM VCSH OVC040



MET'MAP, la Météo Aéronautique d'un coup d'oeil ! - Copyright ORBIFLY Décembre 2007 - Disclaimer

ORBIFLY MET'MAP TEAM :

Programmation & Développement : Alexandra Zaïnal
Sur une idée originale de : Baudouin d'Aumeries
Assistance à la programmation : Marc-Olivier Méhu
Soutien technique & logistique : Manuel Goepfert

Contact : metmap@orbifly.com




SOURCES & CREDITS :

   NOAA       Earth
Advisory